createdAt,value
2023-05-15T00:00:41.900Z,11.53
2023-05-15T00:06:36.522Z,6.77
2023-05-15T00:12:29.964Z,7.00
2023-05-15T00:18:23.163Z,9.93
2023-05-15T00:24:17.702Z,9.10
2023-05-15T00:30:11.763Z,11.83
2023-05-15T00:36:05.778Z,7.90
2023-05-15T00:42:02.227Z,7.43
2023-05-15T00:47:56.998Z,7.10
2023-05-15T00:53:52.007Z,6.70
2023-05-15T00:59:49.215Z,6.10
2023-05-15T01:05:42.599Z,6.73
2023-05-15T01:11:39.286Z,6.73
2023-05-15T01:17:33.920Z,7.83
2023-05-15T01:23:40.258Z,7.43
2023-05-15T01:29:39.158Z,6.07
2023-05-15T01:35:37.356Z,7.47
2023-05-15T01:41:36.032Z,6.10
2023-05-15T01:47:34.801Z,5.97
2023-05-15T01:53:29.454Z,6.50
2023-05-15T01:59:23.411Z,6.70
2023-05-15T02:05:19.208Z,6.47
2023-05-15T02:11:15.230Z,5.97
2023-05-15T02:17:08.853Z,6.50
2023-05-15T02:23:03.220Z,6.33
2023-05-15T02:29:05.584Z,6.63
2023-05-15T02:35:06.618Z,7.90
2023-05-15T02:41:03.192Z,6.63
2023-05-15T02:46:59.328Z,7.50
2023-05-15T02:52:52.747Z,7.87
2023-05-15T02:58:47.753Z,7.07
2023-05-15T03:04:41.302Z,7.20
2023-05-15T03:10:34.788Z,6.63
2023-05-15T03:16:29.304Z,6.97
2023-05-15T03:22:22.763Z,6.13
2023-05-15T03:28:15.757Z,7.73
2023-05-15T03:34:10.217Z,8.90
2023-05-15T03:40:03.208Z,6.67
2023-05-15T03:45:56.611Z,7.67
2023-05-15T03:51:51.863Z,8.53
2023-05-15T03:57:45.068Z,9.63
2023-05-15T04:03:38.873Z,9.70
2023-05-15T04:09:33.203Z,13.03
2023-05-15T04:15:28.617Z,9.47
2023-05-15T04:21:21.683Z,9.37
2023-05-15T04:27:16.050Z,9.40
2023-05-15T04:33:09.096Z,10.87
2023-05-15T04:39:02.572Z,12.13
2023-05-15T04:44:57.591Z,13.13
2023-05-15T04:50:51.589Z,14.20
2023-05-15T04:56:45.032Z,14.53
2023-05-15T05:02:40.379Z,14.60
2023-05-15T05:08:33.886Z,13.80
2023-05-15T05:14:28.143Z,15.53
2023-05-15T05:20:23.016Z,14.00
2023-05-15T05:26:16.010Z,13.73
2023-05-15T05:32:09.339Z,14.93
2023-05-15T05:38:03.683Z,15.27
2023-05-15T05:43:56.662Z,15.10
2023-05-15T05:49:51.094Z,14.87
2023-05-15T05:55:46.021Z,15.33
2023-05-15T06:01:43.122Z,13.27
2023-05-15T06:07:36.631Z,13.33
2023-05-15T06:13:30.941Z,12.47
2023-05-15T06:19:24.218Z,11.47
2023-05-15T06:25:17.254Z,9.83
2023-05-15T06:31:11.668Z,10.10
2023-05-15T06:37:05.314Z,10.87
2023-05-15T06:42:58.716Z,8.03
2023-05-15T06:48:53.074Z,7.03
2023-05-15T06:54:46.988Z,6.03
2023-05-15T07:00:40.238Z,8.33
2023-05-15T07:06:34.712Z,4.90
2023-05-15T07:12:27.927Z,5.23
2023-05-15T07:18:20.937Z,3.87
2023-05-15T07:24:15.796Z,6.90
2023-05-15T07:30:09.958Z,3.53
2023-05-15T07:36:03.407Z,4.17
2023-05-15T07:41:57.817Z,4.10
2023-05-15T07:47:51.441Z,4.67
2023-05-15T07:53:44.488Z,3.40
2023-05-15T07:59:39.245Z,5.23
2023-05-15T08:05:32.357Z,3.00
2023-05-15T08:11:25.364Z,3.40
2023-05-15T08:17:20.746Z,2.70
2023-05-15T08:23:14.304Z,4.63
2023-05-15T08:29:07.789Z,3.37
2023-05-15T08:35:02.114Z,2.70
2023-05-15T08:40:58.771Z,2.90
2023-05-15T08:46:54.199Z,3.30
2023-05-15T08:52:49.431Z,6.27
2023-05-15T08:58:43.234Z,2.77
2023-05-15T09:04:36.731Z,4.70
2023-05-15T09:10:31.505Z,2.57
2023-05-15T09:16:24.908Z,2.80
2023-05-15T09:22:23.249Z,2.70
2023-05-15T09:28:29.249Z,2.70
2023-05-15T09:34:31.819Z,3.50
2023-05-15T09:40:24.949Z,3.43
2023-05-15T09:46:19.510Z,2.63
2023-05-15T09:52:12.873Z,2.97
2023-05-15T09:58:07.673Z,2.77
2023-05-15T10:04:03.596Z,2.77
2023-05-15T10:09:57.152Z,3.03
2023-05-15T10:15:50.807Z,3.43
2023-05-15T10:21:45.872Z,4.53
2023-05-15T10:27:41.898Z,7.97
2023-05-15T10:33:36.921Z,3.10
2023-05-15T10:39:31.919Z,6.47
2023-05-15T10:45:25.368Z,3.73
2023-05-15T10:51:19.258Z,6.30
2023-05-15T10:57:15.659Z,5.50
2023-05-15T11:03:08.764Z,2.33
2023-05-15T11:09:35.882Z,3.37
2023-05-15T11:15:42.984Z,2.23
2023-05-15T11:21:46.542Z,3.40
2023-05-15T11:27:42.043Z,3.77
2023-05-15T11:33:40.290Z,2.50
2023-05-15T11:39:40.806Z,2.33
2023-05-15T11:45:36.017Z,4.07
2023-05-15T11:51:30.696Z,3.03
2023-05-15T11:57:25.564Z,4.20
2023-05-15T12:03:25.761Z,3.50
2023-05-15T12:09:23.014Z,3.77
2023-05-15T12:15:18.163Z,6.43
2023-05-15T12:21:11.793Z,3.60
2023-05-15T12:27:06.977Z,2.90
2023-05-15T12:33:04.769Z,2.80
2023-05-15T12:38:58.036Z,3.43
2023-05-15T12:44:56.831Z,6.43
2023-05-15T12:50:50.148Z,3.80
2023-05-15T12:56:44.405Z,3.20
2023-05-15T13:02:39.277Z,4.03
2023-05-15T13:08:32.422Z,2.90
2023-05-15T13:14:29.375Z,3.40
2023-05-15T13:20:25.146Z,7.33
2023-05-15T13:26:18.430Z,3.03
2023-05-15T13:32:11.385Z,4.17
2023-05-15T13:38:08.709Z,2.80
2023-05-15T13:44:03.545Z,3.60
2023-05-15T13:49:56.490Z,3.43
2023-05-15T13:55:50.801Z,5.83
2023-05-15T14:01:44.237Z,6.17
2023-05-15T14:07:37.734Z,6.73
2023-05-15T14:13:34.023Z,11.30
2023-05-15T14:19:27.027Z,7.60
2023-05-15T14:25:20.058Z,12.80
2023-05-15T14:31:14.406Z,11.57
2023-05-15T14:37:07.431Z,10.30
2023-05-15T14:43:00.408Z,11.73
2023-05-15T14:48:54.723Z,9.43
2023-05-15T14:55:00.672Z,10.67
2023-05-15T15:01:00.674Z,12.20
2023-05-15T15:06:57.101Z,10.00
2023-05-15T15:12:52.989Z,10.53
2023-05-15T15:18:46.366Z,10.87
2023-05-15T15:24:41.094Z,9.77
2023-05-15T15:30:34.126Z,10.40
2023-05-15T15:36:27.776Z,8.03
2023-05-15T15:42:22.538Z,11.27
2023-05-15T15:48:15.526Z,12.23
2023-05-15T15:54:09.160Z,10.90
2023-05-15T16:00:04.051Z,10.53
2023-05-15T16:06:00.209Z,11.40
2023-05-15T16:11:53.864Z,9.13
2023-05-15T16:17:48.221Z,10.13
2023-05-15T16:23:41.415Z,8.87
2023-05-15T16:29:34.848Z,6.90
2023-05-15T16:35:29.373Z,6.83
2023-05-15T16:41:22.769Z,4.40
2023-05-15T16:47:15.963Z,3.70
2023-05-15T16:53:10.831Z,3.20
2023-05-15T16:59:03.920Z,3.27
2023-05-15T17:04:56.832Z,3.07
2023-05-15T17:10:51.178Z,4.13
2023-05-15T17:16:45.584Z,4.87
2023-05-15T17:22:38.704Z,4.83
2023-05-15T17:28:33.117Z,6.03
2023-05-15T17:34:26.089Z,6.87
2023-05-15T17:40:19.200Z,6.70
2023-05-15T17:46:14.072Z,13.43
2023-05-15T17:52:08.502Z,8.33
2023-05-15T17:58:01.974Z,10.00
2023-05-15T18:03:56.375Z,7.73
2023-05-15T18:09:49.798Z,6.80
2023-05-15T18:15:43.227Z,5.50
2023-05-15T18:21:38.276Z,6.83
2023-05-15T18:27:31.710Z,9.20
2023-05-15T18:33:24.706Z,6.93
2023-05-15T18:39:19.729Z,7.50
2023-05-15T18:45:14.107Z,4.80
2023-05-15T18:51:07.081Z,6.30
2023-05-15T18:57:01.781Z,8.37
2023-05-15T19:02:54.874Z,8.23
2023-05-15T19:08:48.450Z,7.97
2023-05-15T19:14:42.846Z,5.30
2023-05-15T19:20:35.826Z,4.77
2023-05-15T19:26:29.408Z,8.77
2023-05-15T19:32:24.290Z,7.10
2023-05-15T19:38:17.474Z,5.20
2023-05-15T19:44:10.890Z,7.67
2023-05-15T19:50:06.773Z,7.93
2023-05-15T19:55:59.900Z,6.00
2023-05-15T20:01:53.068Z,10.20
2023-05-15T20:07:48.021Z,6.30
2023-05-15T20:13:41.440Z,6.17
2023-05-15T20:19:35.940Z,6.67
2023-05-15T20:25:30.912Z,7.50
2023-05-15T20:31:24.347Z,8.30
2023-05-15T20:37:17.365Z,8.00
2023-05-15T20:43:11.955Z,9.37
2023-05-15T20:49:04.965Z,10.97
2023-05-15T20:54:58.160Z,9.43
2023-05-15T21:00:52.744Z,10.27
2023-05-15T21:06:46.637Z,11.03
2023-05-15T21:12:40.005Z,9.23
2023-05-15T21:18:34.720Z,9.87
2023-05-15T21:24:27.888Z,9.03
2023-05-15T21:30:21.253Z,9.40
2023-05-15T21:36:15.582Z,9.53
2023-05-15T21:42:08.617Z,8.53
2023-05-15T21:48:01.885Z,8.77
2023-05-15T21:53:56.305Z,7.87
2023-05-15T21:59:49.301Z,9.07
2023-05-15T22:05:42.539Z,8.50
2023-05-15T22:11:37.280Z,11.80
2023-05-15T22:17:30.901Z,10.77
2023-05-15T22:23:24.297Z,10.67
2023-05-15T22:29:18.705Z,14.27
2023-05-15T22:35:13.162Z,9.70
2023-05-15T22:41:06.736Z,9.60
2023-05-15T22:47:01.773Z,8.60
2023-05-15T22:52:54.950Z,9.60
2023-05-15T22:58:48.787Z,8.37
2023-05-15T23:04:43.495Z,9.40
2023-05-15T23:10:36.832Z,10.57
2023-05-15T23:16:29.899Z,12.20
2023-05-15T23:22:24.239Z,10.73
2023-05-15T23:28:17.235Z,12.43
2023-05-15T23:34:10.695Z,10.80
2023-05-15T23:40:06.256Z,11.37
2023-05-15T23:45:59.436Z,11.33
2023-05-15T23:51:52.634Z,9.80
2023-05-15T23:57:48.431Z,6.70
